Map

Track Data

SID SEASON NUMBER BASIN SUBBASIN NAME ISO_TIME NATURE LAT LON WMO_WIND WMO_PRES WMO_AGENCY TRACK_TYPE DIST2LAND LANDFALL IFLAG USA_AGENCY USA_ATCF_ID USA_LAT USA_LON USA_RECORD USA_STATUS USA_WIND USA_PRES USA_SSHS USA_R34_NE USA_R34_SE USA_R34_SW USA_R34_NW USA_R50_NE USA_R50_SE USA_R50_SW USA_R50_NW USA_R64_NE USA_R64_SE USA_R64_SW USA_R64_NW USA_POCI USA_ROCI USA_RMW USA_EYE TOKYO_LAT TOKYO_LON TOKYO_GRADE TOKYO_WIND TOKYO_PRES TOKYO_R50_DIR TOKYO_R50_LONG TOKYO_R50_SHORT TOKYO_R30_DIR TOKYO_R30_LONG TOKYO_R30_SHORT TOKYO_LAND CMA_LAT CMA_LON CMA_CAT CMA_WIND CMA_PRES HKO_LAT HKO_LON HKO_CAT HKO_WIND HKO_PRES NEWDELHI_LAT NEWDELHI_LON NEWDELHI_GRADE NEWDELHI_WIND NEWDELHI_PRES NEWDELHI_CI NEWDELHI_DP NEWDELHI_POCI REUNION_LAT REUNION_LON REUNION_TYPE REUNION_WIND REUNION_PRES REUNION_TNUM REUNION_CI REUNION_RMW REUNION_R34_NE REUNION_R34_SE REUNION_R34_SW REUNION_R34_NW REUNION_R50_NE REUNION_R50_SE REUNION_R50_SW REUNION_R50_NW REUNION_R64_NE REUNION_R64_SE REUNION_R64_SW REUNION_R64_NW BOM_LAT BOM_LON BOM_TYPE BOM_WIND BOM_PRES BOM_TNUM BOM_CI BOM_RMW BOM_R34_NE BOM_R34_SE BOM_R34_SW BOM_R34_NW BOM_R50_NE BOM_R50_SE BOM_R50_SW BOM_R50_NW BOM_R64_NE BOM_R64_SE BOM_R64_SW BOM_R64_NW BOM_ROCI BOM_POCI BOM_EYE BOM_POS_METHOD BOM_PRES_METHOD NADI_LAT NADI_LON NADI_CAT NADI_WIND NADI_PRES WELLINGTON_LAT WELLINGTON_LON WELLINGTON_WIND WELLINGTON_PRES DS824_LAT DS824_LON DS824_STAGE DS824_WIND DS824_PRES TD9636_LAT TD9636_LON TD9636_STAGE TD9636_WIND TD9636_PRES TD9635_LAT TD9635_LON TD9635_WIND TD9635_PRES TD9635_ROCI NEUMANN_LAT NEUMANN_LON NEUMANN_CLASS NEUMANN_WIND NEUMANN_PRES MLC_LAT MLC_LON MLC_CLASS MLC_WIND MLC_PRES USA_GUST BOM_GUST BOM_GUST_PER REUNION_GUST REUNION_GUST_PER USA_SEAHGT USA_SEARAD_NE USA_SEARAD_SE USA_SEARAD_SW USA_SEARAD_NW STORM_SPEED STORM_DIR
1989094S05086 1989 29 SI MM LEZISSY 1989-04-04 00:00:00 TS -4.50000 85.5000 spur-merge 1286 1281 O_________O_O_ jtwc_sh SH241989 -4.50000 85.5000 20 -1 -4.50000 85.5000 1 20 -4.50000 85.5000 TC 20 15 238
1989094S05086 1989 29 SI MM LEZISSY 1989-04-04 03:00:00 TS -4.89570 84.8571 spur-merge 1301 1297 P_________P_P_ SH241989 -4.90514 84.8402 20 -1 -4.87683 84.8908 1 20 -4.90514 84.8402 TC 20 15 238
1989094S05086 1989 29 SI MM LEZISSY 1989-04-04 06:00:00 TS -5.28758 84.2250 spur-merge 1317 1317 O_________P_O_ jtwc_sh SH241989 -5.30000 84.2000 20 -1 -5.26274 84.2751 1 20 -5.30000 84.2000 TC 20 15 238
1989094S05086 1989 29 SI MM LEZISSY 1989-04-04 09:00:00 TS -5.67903 83.6105 spur-merge 1341 1339 P_________P_P_ SH241989 -5.68492 83.5923 20 -1 -5.66727 83.6469 1 20 -5.68492 83.5923 TC 20 15 236
1989094S05086 1989 29 SI MM LEZISSY 1989-04-04 12:00:00 TS -6.10000 83.0000 spur-merge 1370 1368 O_________O_O_ jtwc_sh SH241989 -6.10000 83.0000 20 -1 -6.10000 83.0000 1 20 -6.10000 83.0000 TC 20 15 234
1989094S05086 1989 29 SI MM LEZISSY 1989-04-04 15:00:00 TS -6.57457 82.3830 spur-merge 1414 1413 P_________P_P_ SH241989 -6.57741 82.4074 20 -1 -6.56890 82.3344 1 21 -6.57741 82.4074 TC 20 16 231
1989094S05086 1989 29 SI MM LEZISSY 1989-04-04 18:00:00 TS -7.09176 81.7584 spur-merge 1462 1461 O_________P_O_ jtwc_sh SH241989 -7.10000 81.8000 20 -1 -7.07529 81.6750 1 22 -7.10000 81.8000 TC 20 17 231
1989094S05086 1989 29 SI MM LEZISSY 1989-04-04 21:00:00 TS -7.61971 81.1026 spur-merge 1513 1513 P_________P_P_ SH241989 -7.62007 81.1274 22 -1 -7.61900 81.0531 1 23 -7.62007 81.1274 TC 22 17 228
1989094S05086 1989 29 SI MM LEZISSY 1989-04-05 00:00:00 TS -8.20000 80.5000 spur-merge 1580 1580 O_________O_O_ jtwc_sh SH241989 -8.20000 80.5000 25 -1 -8.20000 80.5000 1 25 -8.20000 80.5000 TC 25 17 220
1989094S05086 1989 29 SI MM LEZISSY 1989-04-05 03:00:00 TS -8.88487 80.0334 spur-merge 1659 1659 P_________P_P_ SH241989 -8.89239 79.9975 25 -1 -8.86983 80.1053 1 25 -8.89239 79.9975 TC 25 16 211
1989094S05086 1989 29 SI MM LEZISSY 1989-04-05 06:00:00 TS -9.58862 79.6572 spur-merge 1739 1739 O_________P_O_ jtwc_sh SH241989 -9.60000 79.6000 25 -1 -9.56587 79.7716 1 25 -9.60000 79.6000 TC 25 15 206
1989094S05086 1989 29 SI MM LEZISSY 1989-04-05 09:00:00 TS -10.2345 79.3621 spur-merge 1808 1808 P_________P_P_ SH241989 -10.2372 79.3295 25 -1 -10.2291 79.4271 1 25 -10.2372 79.3295 TC 25 14 208
1989094S05086 1989 29 SI MM LEZISSY 1989-04-05 12:00:00 TS -10.8000 79.0000 spur-merge 1879 1879 O_________O_O_ jtwc_sh SH241989 -10.8000 79.0000 25 -1 -10.8000 79.0000 1 25 -10.8000 79.0000 TC 25 14 222
1989094S05086 1989 29 SI MM LEZISSY 1989-04-05 15:00:00 TS -11.2963 78.4044 spur-merge 1942 1942 P_________P_P_ SH241989 -11.3175 78.4177 25 -1 -11.2540 78.3776 1 26 -11.3175 78.4177 TC 25 16 236
1989094S05086 1989 29 SI MM LEZISSY 1989-04-05 18:00:00 TS -11.6678 77.6894 spur-merge 1997 1997 O_________P_O_ jtwc_sh SH241989 -11.7000 77.7000 25 -1 -11.6033 77.6682 1 27 -11.7000 77.7000 TC 25 16 247
1989094S05086 1989 29 SI MM LEZISSY 1989-04-05 21:00:00 TS -11.9053 76.9415 spur-merge 2036 2036 P_________P_P_ SH241989 -11.9325 76.9499 27 -1 -11.8508 76.9246 1 28 -11.9325 76.9499 TC 27 15 257
1989094S05086 1989 29 SI MM LEZISSY 1989-04-06 00:00:00 TS -12.0000 76.2000 spur-merge 2063 2063 O_________O_O_ jtwc_sh SH241989 -12.0000 76.2000 30 -1 -12.0000 76.2000 1 30 -12.0000 76.2000 TC 30 14 268
1989094S05086 1989 29 SI MM LEZISSY 1989-04-06 03:00:00 TS -11.9524 75.5268 spur-merge 2083 2052 P_________P_P_ SH241989 -11.9148 75.5196 32 -1 -12.0275 75.5413 1 32 -11.9148 75.5196 TC 32 13 274
1989094S05086 1989 29 SI MM LEZISSY 1989-04-06 06:00:00 TS -11.9145 74.9125 36 991 reunion spur-merge 2052 1996 O____O____P_O_ jtwc_sh SH241989 -11.8000 74.9000 35 0 -12.6000 75.0000 3 36 991 3.00000 3.00000 -11.9722 74.9155 1 35 -11.8000 74.9000 TC 35 12 271
1989094S05086 1989 29 SI MM LEZISSY 1989-04-06 09:00:00 TS -11.9355 74.2877 spur-merge 1996 1948 P____P____P_P_ SH241989 -11.8123 74.3350 37 0 -12.5022 73.9722 3 40 987 -11.9058 74.3321 1 37 -11.8123 74.3350 TC 37 12 269
1989094S05086 1989 29 SI MM LEZISSY 1989-04-06 12:00:00 TS -11.9385 73.7385 44 984 reunion spur-merge 1939 1896 O____O____O_O_ jtwc_sh SH241989 -11.9000 73.8000 40 0 -12.4000 73.0000 3 44 984 3.50000 3.50000 -11.9000 73.8000 2 40 -11.9000 73.8000 TC 40 10 265
1989094S05086 1989 29 SI MM LEZISSY 1989-04-06 15:00:00 TS -12.0328 73.2312 spur-merge 1886 1837 P_________P_P_ SH241989 -12.0126 73.2125 40 0 3 -12.0732 73.2687 2 41 -12.0126 73.2125 TC 40 10 253
1989094S05086 1989 29 SI MM LEZISSY 1989-04-06 18:00:00 TS -12.2374 72.7312 44 984 reunion spur-merge 1828 1783 O_________P_O_ jtwc_sh SH241989 -12.2000 72.7000 40 0 3 -12.3124 72.7937 2 42 -12.2000 72.7000 TC 40 10 240
1989094S05086 1989 29 SI MM LEZISSY 1989-04-06 21:00:00 TS -12.5283 72.3540 spur-merge 1783 1738 P_________P_P_ SH241989 -12.5074 72.3326 42 0 3 -12.5703 72.3967 2 43 -12.5074 72.3326 TC 42 8 228
1989094S05086 1989 29 SI MM LEZISSY 1989-04-07 00:00:00 TS -12.8000 72.1000 44 984 reunion spur-merge 1738 1723 O_________O_O_ jtwc_sh SH241989 -12.8000 72.1000 45 0 3 -12.8000 72.1000 2 45 -12.8000 72.1000 TC 45 6 225
1989094S05086 1989 29 SI MM LEZISSY 1989-04-07 03:00:00 TS -12.9331 71.9469 spur-merge 1714 1708 P_________P_P_ SH241989 -12.9299 71.9624 45 0 3 -12.9396 71.9158 2 45 -12.9299 71.9624 TC 45 3 225
1989094S05086 1989 29 SI MM LEZISSY 1989-04-07 06:00:00 TS -13.0148 71.8765 44 984 reunion spur-merge 1708 1693 O_________P_O_ jtwc_sh SH241989 -13.0000 71.9000 45 0 3 -13.0445 71.8295 2 45 -13.0000 71.9000 TC 45 2 213
1989094S05086 1989 29 SI MM LEZISSY 1989-04-07 09:00:00 TS -13.1141 71.8245 spur-merge 1693 1688 P_________P_P_ SH241989 -13.1075 71.8350 45 0 3 -13.1272 71.8035 2 45 -13.1075 71.8350 TC 45 2 203
1989094S05086 1989 29 SI MM LEZISSY 1989-04-07 12:00:00 TS -13.2000 71.8000 36 991 reunion spur-merge 1688 1682 O_________O_O_ jtwc_sh SH241989 -13.2000 71.8000 45 0 3 -13.2000 71.8000 2 45 -13.2000 71.8000 TC 45 1 197
1989094S05086 1989 29 SI MM LEZISSY 1989-04-07 15:00:00 TS -13.2553 71.7882 spur-merge 1682 1682 P_________P_P_ SH241989 -13.2500 71.8000 45 0 3 -13.2659 71.7646 2 45 -13.2500 71.8000 TC 45 1 193
1989094S05086 1989 29 SI MM LEZISSY 1989-04-07 18:00:00 TS -13.3092 71.7808 36 991 reunion spur-merge 1682 1667 O_________P_O_ jtwc_sh SH241989 -13.3000 71.8000 45 0 3 -13.3275 71.7424 2 45 -13.3000 71.8000 TC 45 1 199
1989094S05086 1989 29 SI MM LEZISSY 1989-04-07 21:00:00 TS -13.3901 71.7463 spur-merge 1667 1662 P_________P_P_ SH241989 -13.3850 71.7575 45 0 3 -13.4003 71.7240 2 45 -13.3850 71.7575 TC 45 2 202
1989094S05086 1989 29 SI MM LEZISSY 1989-04-08 00:00:00 TS -13.5000 71.7000 36 991 reunion spur-merge 1662 1656 O_________O_O_ jtwc_sh SH241989 -13.5000 71.7000 45 0 3 -13.5000 71.7000 2 45 -13.5000 71.7000 TC 45 3 198
1989094S05086 1989 29 SI MM LEZISSY 1989-04-08 03:00:00 TS -13.6306 71.6658 spur-merge 1656 1636 P_________P_P_ SH241989 -13.6350 71.6500 42 0 3 -13.6217 71.6974 2 42 -13.6350 71.6500 TC 42 3 193
1989094S05086 1989 29 SI MM LEZISSY 1989-04-08 06:00:00 TS -13.7916 71.6273 36 991 reunion spur-merge 1636 1626 O_________P_O_ jtwc_sh SH241989 -13.8000 71.6000 40 0 3 -13.7748 71.6819 2 40 -13.8000 71.6000 TC 40 3 192
1989094S05086 1989 29 SI MM LEZISSY 1989-04-08 09:00:00 TS -13.9684 71.5901 spur-merge 1626 1606 P_________P_P_ SH241989 -13.9700 71.5724 37 0 3 -13.9654 71.6254 2 37 -13.9700 71.5724 TC 37 4 197
1989094S05086 1989 29 SI MM LEZISSY 1989-04-08 12:00:00 TS -14.2000 71.5000 28 997 reunion spur-merge 1606 1571 O_________O_O_ jtwc_sh SH241989 -14.2000 71.5000 35 0 3 -14.2000 71.5000 2 35 -14.2000 71.5000 TC 35 6 206
1989094S05086 1989 29 SI MM LEZISSY 1989-04-08 15:00:00 TS -14.4916 71.3214 spur-merge 1571 1537 P_________P_P_ SH241989 -14.5349 71.3524 32 -1 3 -14.4051 71.2594 2 33 -14.5349 71.3524 TC 32 8 215
1989094S05086 1989 29 SI MM LEZISSY 1989-04-08 18:00:00 TS -14.8210 71.0506 28 997 reunion spur-merge 1537 1484 O_________P_O_ jtwc_sh SH241989 -14.9000 71.1000 30 -1 3 -14.6631 70.9519 2 32 -14.9000 71.1000 TC 30 9 223
1989094S05086 1989 29 SI MM LEZISSY 1989-04-08 21:00:00 TS -15.1433 70.6829 spur-merge 1484 1427 P_________P_P_ SH241989 -15.2076 70.7150 27 -1 3 -15.0145 70.6185 2 31 -15.2076 70.7150 TC 27 10 227
1989094S05086 1989 29 SI MM LEZISSY 1989-04-09 00:00:00 TS -15.5000 70.3000 28 997 reunion spur-merge 1427 1365 O_________O_O_ jtwc_sh SH241989 -15.5000 70.3000 25 -1 3 -15.5000 70.3000 1 30 -15.5000 70.3000 TC 25 11 222
1989094S05086 1989 29 SI MM LEZISSY 1989-04-09 03:00:00 TS -15.9888 69.9059 spur-merge 1365 1315 P_________P_P_ SH241989 -15.7974 69.9701 25 -1 3 -16.1836 70.0575 1 30 -15.7974 69.9701 TC 25 13 211
1989094S05086 1989 29 SI MM LEZISSY 1989-04-09 06:00:00 TS -16.5725 69.6174 28 997 reunion spur-merge 1311 1262 O____O____P_O_ jtwc_sh SH241989 -16.1000 69.7000 25 -1 -16.2000 69.1000 2 28 997 2.50000 2.50000 -16.9949 69.8349 1 30 -16.1000 69.7000 TC 25 15 197
1989094S05086 1989 29 SI MM LEZISSY 1989-04-09 09:00:00 TS -17.4618 69.4429 spur-merge 1259 1239 _____P____P___ SH241989 -1 -17.0215 69.2111 2 24 -17.8588 69.6198 1 30 TC 17 189
1989094S05086 1989 29 SI MM LEZISSY 1989-04-09 12:00:00 TS -18.2500 69.3500 20 reunion spur-merge 1239 1214 _____O____O___ -1 -17.8000 69.3000 2 20 1.50000 1.50000 -18.7000 69.4000 1 30 15 187
1989094S05086 1989 29 SI MM LEZISSY 1989-04-09 15:00:00 TS -18.9666 69.2558 spur-merge 1212 1183 _____P____P___ -1 -18.4375 69.3300 2 28 -19.4957 69.1816 1 28 14 189
1989094S05086 1989 29 SI MM LEZISSY 1989-04-09 18:00:00 TS -19.6221 69.1264 36 reunion spur-merge 1183 1168 _____O____P___ -1 -19.0000 69.3000 6 36 9.90000 -20.2441 68.9527 1 27 13 192
1989094S05086 1989 29 SI MM LEZISSY 1989-04-09 21:00:00 TS -20.2190 68.9785 spur-merge 1168 1146 _____P____P___ -1 -19.5424 69.2595 6 36 -20.8956 68.6975 1 26 12 197
1989094S05086 1989 29 SI MM LEZISSY 1989-04-10 00:00:00 TS -20.7500 68.7500 36 reunion spur-merge 1146 1106 _____O____O___ -1 -20.1000 69.1000 6 36 9.90000 -21.4000 68.4000 1 25 12 208
1989094S05086 1989 29 SI MM LEZISSY 1989-04-10 03:00:00 TS -21.2602 68.3906 spur-merge 1107 1068 _____P____P___ -1 -20.7952 68.7309 6 36 -21.7252 68.0504 1 23 12 219
1989094S05086 1989 29 SI MM LEZISSY 1989-04-10 06:00:00 TS -21.6511 67.9795 36 reunion spur-merge 1069 1031 _____O____P___ -1 -21.4000 68.3000 6 36 9.90000 -21.9023 67.6589 1 22 9 230
1989094S05086 1989 29 SI MM LEZISSY 1989-04-10 09:00:00 TS -21.8590 67.6188 spur-merge 1031 1001 _____P____P___ -1 -21.7397 67.9995 6 36 -21.9782 67.2381 1 21 7 246
1989094S05086 1989 29 SI MM LEZISSY 1989-04-10 12:00:00 TS -21.9500 67.2500 36 reunion spur-merge 1001 962 _____O____O___ -1 -21.9000 67.7000 6 36 9.90000 -22.0000 66.8000 1 20 7 259
1989094S05086 1989 29 SI MM LEZISSY 1989-04-10 15:00:00 TS -21.9972 66.8423 spur-merge 952 921 _____P____P___ -1 -21.9874 67.3298 6 36 -22.0070 66.3547 1 20 7 266
1989094S05086 1989 29 SI MM LEZISSY 1989-04-10 18:00:00 TS -22.0036 66.4737 36 reunion spur-merge 921 881 _____O____P___ -1 -22.0000 66.9000 6 36 9.90000 -22.0084 65.9054 1 20 7 269
1989094S05086 1989 29 SI MM LEZISSY 1989-04-10 21:00:00 TS -22.0069 66.0894 spur-merge 881 840 _____P____P___ -1 -22.0075 66.4074 6 36 -22.0056 65.4533 1 20 7 270
1989094S05086 1989 29 SI MM LEZISSY 1989-04-11 00:00:00 TS -22.0000 65.6750 36 reunion spur-merge 840 820 _____O____O___ -1 -22.0000 65.9000 6 36 9.90000 -22.0000 65.0000 1 20 6 271
1989094S05086 1989 29 SI MM LEZISSY 1989-04-11 03:00:00 TS -21.9976 65.4350 spur-merge 810 770 _____P________ -1 -21.9976 65.4350 6 36 1 6 270
1989094S05086 1989 29 SI MM LEZISSY 1989-04-11 06:00:00 TS -22.0000 65.0000 36 reunion spur-merge 770 _____O________ -1 -22.0000 65.0000 6 36 9.90000 1 8 270

About IBTrACS Database

This database is a web-friendly format of International Best Track Archive for Climate Stewardship (IBTrACS), a global best track data archive curated by NOAA dating back to 1842.

Updated: 2021-12-03